sensor_id;sensor_type;location;lat;lon;timestamp;P1;durP1;ratioP1;P2;durP2;ratioP2
62554;SDS011;48610;52.144;8.624;2023-08-08T00:01:21;7.82;;;3.90;;
62554;SDS011;48610;52.144;8.624;2023-08-08T00:04:21;13.18;;;4.10;;
62554;SDS011;48610;52.144;8.624;2023-08-08T00:07:22;11.18;;;4.97;;
62554;SDS011;48610;52.144;8.624;2023-08-08T00:10:23;10.18;;;4.63;;
62554;SDS011;48610;52.144;8.624;2023-08-08T00:13:24;12.25;;;5.05;;
62554;SDS011;48610;52.144;8.624;2023-08-08T00:16:24;11.23;;;5.10;;
62554;SDS011;48610;52.144;8.624;2023-08-08T00:19:25;11.63;;;5.28;;
62554;SDS011;48610;52.144;8.624;2023-08-08T00:22:26;7.82;;;4.65;;
62554;SDS011;48610;52.144;8.624;2023-08-08T00:25:26;9.88;;;4.85;;
62554;SDS011;48610;52.144;8.624;2023-08-08T00:28:27;11.82;;;5.10;;
62554;SDS011;48610;52.144;8.624;2023-08-08T00:31:27;8.88;;;4.75;;
62554;SDS011;48610;52.144;8.624;2023-08-08T00:34:28;7.10;;;4.43;;
62554;SDS011;48610;52.144;8.624;2023-08-08T00:37:28;11.57;;;4.93;;
62554;SDS011;48610;52.144;8.624;2023-08-08T00:40:29;15.85;;;5.25;;
62554;SDS011;48610;52.144;8.624;2023-08-08T00:43:30;11.75;;;4.70;;
62554;SDS011;48610;52.144;8.624;2023-08-08T00:46:30;9.55;;;5.18;;
62554;SDS011;48610;52.144;8.624;2023-08-08T00:49:31;11.38;;;4.82;;
62554;SDS011;48610;52.144;8.624;2023-08-08T00:52:32;6.82;;;4.60;;
62554;SDS011;48610;52.144;8.624;2023-08-08T00:55:34;9.88;;;4.65;;
62554;SDS011;48610;52.144;8.624;2023-08-08T00:58:35;8.30;;;4.60;;
62554;SDS011;48610;52.144;8.624;2023-08-08T01:01:36;21.52;;;5.75;;
62554;SDS011;48610;52.144;8.624;2023-08-08T01:04:36;10.50;;;4.60;;
62554;SDS011;48610;52.144;8.624;2023-08-08T01:07:52;11.02;;;5.47;;
62554;SDS011;48610;52.144;8.624;2023-08-08T01:10:57;9.95;;;5.43;;
62554;SDS011;48610;52.144;8.624;2023-08-08T01:13:58;10.63;;;5.25;;
62554;SDS011;48610;52.144;8.624;2023-08-08T01:17:00;10.80;;;5.57;;
62554;SDS011;48610;52.144;8.624;2023-08-08T01:20:02;13.45;;;5.57;;
62554;SDS011;48610;52.144;8.624;2023-08-08T01:26:53;10.38;;;5.63;;
62554;SDS011;48610;52.144;8.624;2023-08-08T01:29:53;11.65;;;5.90;;
62554;SDS011;48610;52.144;8.624;2023-08-08T01:32:54;13.52;;;6.22;;
62554;SDS011;48610;52.144;8.624;2023-08-08T01:36:03;13.75;;;5.75;;
62554;SDS011;48610;52.144;8.624;2023-08-08T01:39:12;11.88;;;6.40;;
62554;SDS011;48610;52.144;8.624;2023-08-08T01:42:18;20.70;;;6.55;;
62554;SDS011;48610;52.144;8.624;2023-08-08T01:45:21;12.77;;;6.47;;
62554;SDS011;48610;52.144;8.624;2023-08-08T01:48:24;16.02;;;6.03;;
62554;SDS011;48610;52.144;8.624;2023-08-08T01:51:25;15.70;;;5.55;;
62554;SDS011;48610;52.144;8.624;2023-08-08T01:54:26;18.58;;;5.65;;
62554;SDS011;48610;52.144;8.624;2023-08-08T01:57:27;17.70;;;5.57;;
62554;SDS011;48610;52.144;8.624;2023-08-08T02:00:27;18.08;;;5.55;;
62554;SDS011;48610;52.144;8.624;2023-08-08T02:03:28;9.88;;;5.60;;
62554;SDS011;48610;52.144;8.624;2023-08-08T02:06:28;14.25;;;5.47;;
62554;SDS011;48610;52.144;8.624;2023-08-08T02:09:29;12.50;;;5.03;;
62554;SDS011;48610;52.144;8.624;2023-08-08T02:12:30;14.77;;;5.55;;
62554;SDS011;48610;52.144;8.624;2023-08-08T02:15:31;12.23;;;5.20;;
62554;SDS011;48610;52.144;8.624;2023-08-08T02:18:31;10.48;;;4.50;;
62554;SDS011;48610;52.144;8.624;2023-08-08T02:21:32;7.80;;;4.43;;
62554;SDS011;48610;52.144;8.624;2023-08-08T02:24:32;10.50;;;4.60;;
62554;SDS011;48610;52.144;8.624;2023-08-08T02:27:33;20.90;;;4.95;;
62554;SDS011;48610;52.144;8.624;2023-08-08T02:30:33;9.65;;;4.40;;
62554;SDS011;48610;52.144;8.624;2023-08-08T02:33:34;8.18;;;4.95;;
62554;SDS011;48610;52.144;8.624;2023-08-08T02:36:35;7.97;;;4.60;;
62554;SDS011;48610;52.144;8.624;2023-08-08T02:39:35;7.63;;;4.47;;
62554;SDS011;48610;52.144;8.624;2023-08-08T02:42:36;7.25;;;4.00;;
62554;SDS011;48610;52.144;8.624;2023-08-08T02:45:37;10.90;;;4.50;;
62554;SDS011;48610;52.144;8.624;2023-08-08T02:48:37;9.40;;;4.63;;
62554;SDS011;48610;52.144;8.624;2023-08-08T02:51:38;9.18;;;4.50;;
62554;SDS011;48610;52.144;8.624;2023-08-08T02:54:38;14.73;;;4.00;;
62554;SDS011;48610;52.144;8.624;2023-08-08T02:57:39;7.90;;;4.63;;
62554;SDS011;48610;52.144;8.624;2023-08-08T03:00:40;8.38;;;4.30;;
62554;SDS011;48610;52.144;8.624;2023-08-08T03:03:40;12.93;;;4.30;;
62554;SDS011;48610;52.144;8.624;2023-08-08T03:06:41;9.20;;;4.30;;
62554;SDS011;48610;52.144;8.624;2023-08-08T03:09:42;8.32;;;4.22;;
62554;SDS011;48610;52.144;8.624;2023-08-08T03:12:42;6.13;;;4.15;;
62554;SDS011;48610;52.144;8.624;2023-08-08T03:15:43;7.85;;;3.97;;
62554;SDS011;48610;52.144;8.624;2023-08-08T03:18:43;8.38;;;4.63;;
62554;SDS011;48610;52.144;8.624;2023-08-08T03:21:44;5.95;;;4.05;;
62554;SDS011;48610;52.144;8.624;2023-08-08T03:24:45;7.70;;;4.32;;
62554;SDS011;48610;52.144;8.624;2023-08-08T03:27:45;11.02;;;4.97;;
62554;SDS011;48610;52.144;8.624;2023-08-08T03:30:46;12.40;;;5.03;;
62554;SDS011;48610;52.144;8.624;2023-08-08T03:33:46;12.13;;;5.20;;
62554;SDS011;48610;52.144;8.624;2023-08-08T03:36:47;17.50;;;5.82;;
62554;SDS011;48610;52.144;8.624;2023-08-08T03:39:48;11.73;;;5.82;;
62554;SDS011;48610;52.144;8.624;2023-08-08T03:42:48;15.82;;;6.38;;
62554;SDS011;48610;52.144;8.624;2023-08-08T03:45:49;14.60;;;6.80;;
62554;SDS011;48610;52.144;8.624;2023-08-08T03:48:50;15.10;;;6.20;;
62554;SDS011;48610;52.144;8.624;2023-08-08T03:51:50;17.27;;;6.53;;
62554;SDS011;48610;52.144;8.624;2023-08-08T03:54:51;14.98;;;6.80;;
62554;SDS011;48610;52.144;8.624;2023-08-08T03:57:52;11.50;;;6.97;;
62554;SDS011;48610;52.144;8.624;2023-08-08T04:00:53;12.40;;;6.20;;
62554;SDS011;48610;52.144;8.624;2023-08-08T04:03:53;11.80;;;6.38;;
62554;SDS011;48610;52.144;8.624;2023-08-08T04:06:54;12.85;;;6.82;;
62554;SDS011;48610;52.144;8.624;2023-08-08T04:09:54;12.93;;;6.57;;
62554;SDS011;48610;52.144;8.624;2023-08-08T04:12:55;16.77;;;7.32;;
62554;SDS011;48610;52.144;8.624;2023-08-08T04:15:56;11.32;;;6.57;;
62554;SDS011;48610;52.144;8.624;2023-08-08T04:18:56;17.85;;;7.75;;
62554;SDS011;48610;52.144;8.624;2023-08-08T04:21:59;9.95;;;7.05;;
62554;SDS011;48610;52.144;8.624;2023-08-08T04:25:00;12.15;;;6.95;;
62554;SDS011;48610;52.144;8.624;2023-08-08T04:28:00;12.52;;;6.82;;
62554;SDS011;48610;52.144;8.624;2023-08-08T04:31:01;16.60;;;7.32;;
62554;SDS011;48610;52.144;8.624;2023-08-08T04:34:01;20.52;;;6.85;;
62554;SDS011;48610;52.144;8.624;2023-08-08T04:37:02;19.80;;;7.45;;
62554;SDS011;48610;52.144;8.624;2023-08-08T04:40:03;16.02;;;8.00;;
62554;SDS011;48610;52.144;8.624;2023-08-08T04:43:04;19.05;;;8.43;;
62554;SDS011;48610;52.144;8.624;2023-08-08T04:46:05;16.90;;;7.88;;
62554;SDS011;48610;52.144;8.624;2023-08-08T04:49:05;26.70;;;7.85;;
62554;SDS011;48610;52.144;8.624;2023-08-08T04:52:06;20.52;;;8.40;;
62554;SDS011;48610;52.144;8.624;2023-08-08T04:55:06;24.10;;;9.60;;
62554;SDS011;48610;52.144;8.624;2023-08-08T04:58:07;14.77;;;8.15;;
62554;SDS011;48610;52.144;8.624;2023-08-08T05:01:08;16.23;;;8.70;;
62554;SDS011;48610;52.144;8.624;2023-08-08T05:04:14;22.85;;;8.85;;
62554;SDS011;48610;52.144;8.624;2023-08-08T05:07:14;17.83;;;8.55;;
62554;SDS011;48610;52.144;8.624;2023-08-08T05:10:15;22.67;;;9.38;;
62554;SDS011;48610;52.144;8.624;2023-08-08T05:13:15;18.20;;;9.98;;
62554;SDS011;48610;52.144;8.624;2023-08-08T05:16:16;17.00;;;9.35;;
62554;SDS011;48610;52.144;8.624;2023-08-08T05:19:17;19.73;;;9.50;;
62554;SDS011;48610;52.144;8.624;2023-08-08T05:22:18;18.55;;;9.43;;
62554;SDS011;48610;52.144;8.624;2023-08-08T05:25:18;18.88;;;10.15;;
62554;SDS011;48610;52.144;8.624;2023-08-08T05:28:19;20.20;;;9.60;;
62554;SDS011;48610;52.144;8.624;2023-08-08T05:31:20;19.63;;;9.38;;
62554;SDS011;48610;52.144;8.624;2023-08-08T05:34:23;17.52;;;9.48;;
62554;SDS011;48610;52.144;8.624;2023-08-08T05:37:24;17.40;;;9.23;;
62554;SDS011;48610;52.144;8.624;2023-08-08T05:40:24;22.38;;;8.30;;
62554;SDS011;48610;52.144;8.624;2023-08-08T05:43:25;16.48;;;8.45;;
62554;SDS011;48610;52.144;8.624;2023-08-08T05:46:27;16.33;;;8.82;;
62554;SDS011;48610;52.144;8.624;2023-08-08T05:49:28;23.23;;;8.88;;
62554;SDS011;48610;52.144;8.624;2023-08-08T05:52:28;20.15;;;9.88;;
62554;SDS011;48610;52.144;8.624;2023-08-08T05:55:29;22.13;;;9.60;;
62554;SDS011;48610;52.144;8.624;2023-08-08T05:58:30;15.88;;;8.10;;
62554;SDS011;48610;52.144;8.624;2023-08-08T06:01:31;18.05;;;8.32;;
62554;SDS011;48610;52.144;8.624;2023-08-08T06:04:33;22.08;;;9.23;;
62554;SDS011;48610;52.144;8.624;2023-08-08T06:07:34;15.85;;;8.32;;
62554;SDS011;48610;52.144;8.624;2023-08-08T06:10:35;21.92;;;8.63;;
62554;SDS011;48610;52.144;8.624;2023-08-08T06:13:36;20.40;;;8.90;;
62554;SDS011;48610;52.144;8.624;2023-08-08T06:16:37;11.90;;;8.52;;
62554;SDS011;48610;52.144;8.624;2023-08-08T06:19:37;19.35;;;8.15;;
62554;SDS011;48610;52.144;8.624;2023-08-08T06:22:38;19.00;;;7.90;;
62554;SDS011;48610;52.144;8.624;2023-08-08T06:25:39;18.17;;;7.78;;
62554;SDS011;48610;52.144;8.624;2023-08-08T06:28:39;19.67;;;7.47;;
62554;SDS011;48610;52.144;8.624;2023-08-08T06:31:40;14.35;;;7.00;;
62554;SDS011;48610;52.144;8.624;2023-08-08T06:34:41;13.10;;;6.57;;
62554;SDS011;48610;52.144;8.624;2023-08-08T06:37:42;19.80;;;7.53;;
62554;SDS011;48610;52.144;8.624;2023-08-08T06:40:43;15.43;;;6.40;;
62554;SDS011;48610;52.144;8.624;2023-08-08T06:43:44;15.57;;;7.13;;
62554;SDS011;48610;52.144;8.624;2023-08-08T06:46:44;12.18;;;6.63;;
62554;SDS011;48610;52.144;8.624;2023-08-08T06:49:45;11.98;;;5.95;;
62554;SDS011;48610;52.144;8.624;2023-08-08T06:52:46;13.23;;;6.13;;
62554;SDS011;48610;52.144;8.624;2023-08-08T06:55:46;15.57;;;6.63;;
62554;SDS011;48610;52.144;8.624;2023-08-08T06:58:47;14.68;;;6.05;;
62554;SDS011;48610;52.144;8.624;2023-08-08T07:01:48;9.32;;;5.22;;
62554;SDS011;48610;52.144;8.624;2023-08-08T07:04:49;13.32;;;6.55;;
62554;SDS011;48610;52.144;8.624;2023-08-08T07:07:50;11.05;;;6.70;;
62554;SDS011;48610;52.144;8.624;2023-08-08T07:10:51;10.75;;;6.38;;
62554;SDS011;48610;52.144;8.624;2023-08-08T07:13:51;13.35;;;6.55;;
62554;SDS011;48610;52.144;8.624;2023-08-08T07:16:52;23.02;;;6.78;;
62554;SDS011;48610;52.144;8.624;2023-08-08T07:19:53;11.82;;;6.00;;
62554;SDS011;48610;52.144;8.624;2023-08-08T07:22:54;18.17;;;6.85;;
62554;SDS011;48610;52.144;8.624;2023-08-08T07:25:54;16.15;;;6.93;;
62554;SDS011;48610;52.144;8.624;2023-08-08T07:28:55;13.70;;;6.80;;
62554;SDS011;48610;52.144;8.624;2023-08-08T07:31:57;14.50;;;6.40;;
62554;SDS011;48610;52.144;8.624;2023-08-08T07:34:58;12.73;;;6.35;;
62554;SDS011;48610;52.144;8.624;2023-08-08T07:38:01;17.80;;;6.55;;
62554;SDS011;48610;52.144;8.624;2023-08-08T07:41:02;19.17;;;6.30;;
62554;SDS011;48610;52.144;8.624;2023-08-08T07:44:02;20.55;;;6.85;;
62554;SDS011;48610;52.144;8.624;2023-08-08T07:47:03;15.32;;;6.72;;
62554;SDS011;48610;52.144;8.624;2023-08-08T07:50:05;13.88;;;6.88;;
62554;SDS011;48610;52.144;8.624;2023-08-08T07:53:08;13.30;;;6.53;;
62554;SDS011;48610;52.144;8.624;2023-08-08T07:56:09;16.50;;;7.10;;
62554;SDS011;48610;52.144;8.624;2023-08-08T07:59:09;21.80;;;6.80;;
62554;SDS011;48610;52.144;8.624;2023-08-08T08:02:10;15.20;;;6.68;;
62554;SDS011;48610;52.144;8.624;2023-08-08T08:05:11;20.85;;;6.32;;
62554;SDS011;48610;52.144;8.624;2023-08-08T08:08:12;12.52;;;6.75;;
62554;SDS011;48610;52.144;8.624;2023-08-08T08:11:13;11.25;;;6.80;;
62554;SDS011;48610;52.144;8.624;2023-08-08T08:14:16;15.18;;;7.07;;
62554;SDS011;48610;52.144;8.624;2023-08-08T08:17:16;13.77;;;7.03;;
62554;SDS011;48610;52.144;8.624;2023-08-08T08:20:17;13.35;;;6.78;;
62554;SDS011;48610;52.144;8.624;2023-08-08T08:23:18;17.38;;;7.55;;
62554;SDS011;48610;52.144;8.624;2023-08-08T08:26:18;16.08;;;7.50;;
62554;SDS011;48610;52.144;8.624;2023-08-08T08:29:19;15.10;;;7.05;;
62554;SDS011;48610;52.144;8.624;2023-08-08T08:32:20;15.93;;;7.25;;
62554;SDS011;48610;52.144;8.624;2023-08-08T08:35:20;11.85;;;7.90;;
62554;SDS011;48610;52.144;8.624;2023-08-08T08:38:21;21.20;;;7.53;;
62554;SDS011;48610;52.144;8.624;2023-08-08T08:41:23;18.55;;;6.63;;
62554;SDS011;48610;52.144;8.624;2023-08-08T08:44:26;18.20;;;7.15;;
62554;SDS011;48610;52.144;8.624;2023-08-08T08:47:28;15.07;;;7.10;;
62554;SDS011;48610;52.144;8.624;2023-08-08T08:50:30;17.00;;;7.60;;
62554;SDS011;48610;52.144;8.624;2023-08-08T08:53:32;23.25;;;8.80;;
62554;SDS011;48610;52.144;8.624;2023-08-08T08:56:35;17.52;;;8.80;;
62554;SDS011;48610;52.144;8.624;2023-08-08T08:59:35;17.00;;;8.55;;
62554;SDS011;48610;52.144;8.624;2023-08-08T09:02:36;14.32;;;7.40;;
62554;SDS011;48610;52.144;8.624;2023-08-08T09:05:37;13.43;;;6.18;;
62554;SDS011;48610;52.144;8.624;2023-08-08T09:08:41;16.58;;;5.85;;
62554;SDS011;48610;52.144;8.624;2023-08-08T09:11:42;14.45;;;4.60;;
62554;SDS011;48610;52.144;8.624;2023-08-08T09:14:47;12.98;;;4.18;;
62554;SDS011;48610;52.144;8.624;2023-08-08T09:17:50;18.92;;;4.90;;
62554;SDS011;48610;52.144;8.624;2023-08-08T09:20:52;11.98;;;4.30;;
62554;SDS011;48610;52.144;8.624;2023-08-08T09:23:52;15.10;;;4.22;;
62554;SDS011;48610;52.144;8.624;2023-08-08T09:26:53;9.68;;;4.57;;
62554;SDS011;48610;52.144;8.624;2023-08-08T09:29:54;12.88;;;4.82;;
62554;SDS011;48610;52.144;8.624;2023-08-08T09:32:57;12.30;;;5.50;;
62554;SDS011;48610;52.144;8.624;2023-08-08T09:35:59;13.77;;;4.85;;
62554;SDS011;48610;52.144;8.624;2023-08-08T09:38:59;11.13;;;4.60;;
62554;SDS011;48610;52.144;8.624;2023-08-08T09:42:01;8.65;;;4.60;;
62554;SDS011;48610;52.144;8.624;2023-08-08T09:45:02;12.30;;;4.90;;
62554;SDS011;48610;52.144;8.624;2023-08-08T09:48:03;11.07;;;5.30;;
62554;SDS011;48610;52.144;8.624;2023-08-08T09:51:06;17.92;;;5.40;;
62554;SDS011;48610;52.144;8.624;2023-08-08T09:54:07;12.77;;;5.30;;
62554;SDS011;48610;52.144;8.624;2023-08-08T09:57:09;17.15;;;5.50;;
62554;SDS011;48610;52.144;8.624;2023-08-08T10:00:10;11.40;;;5.22;;
62554;SDS011;48610;52.144;8.624;2023-08-08T10:03:16;14.68;;;5.18;;
62554;SDS011;48610;52.144;8.624;2023-08-08T10:06:17;15.63;;;4.57;;
62554;SDS011;48610;52.144;8.624;2023-08-08T10:09:17;11.85;;;4.20;;
62554;SDS011;48610;52.144;8.624;2023-08-08T10:12:19;12.82;;;3.63;;
62554;SDS011;48610;52.144;8.624;2023-08-08T10:15:24;8.13;;;4.05;;
62554;SDS011;48610;52.144;8.624;2023-08-08T10:18:26;11.00;;;3.92;;
62554;SDS011;48610;52.144;8.624;2023-08-08T10:21:27;13.98;;;4.15;;
62554;SDS011;48610;52.144;8.624;2023-08-08T10:24:34;10.07;;;3.60;;
62554;SDS011;48610;52.144;8.624;2023-08-08T10:27:36;7.40;;;3.40;;
62554;SDS011;48610;52.144;8.624;2023-08-08T10:33:46;6.20;;;3.63;;
62554;SDS011;48610;52.144;8.624;2023-08-08T10:36:51;11.88;;;3.63;;
62554;SDS011;48610;52.144;8.624;2023-08-08T10:39:57;4.57;;;2.70;;
62554;SDS011;48610;52.144;8.624;2023-08-08T10:42:59;10.00;;;3.30;;
62554;SDS011;48610;52.144;8.624;2023-08-08T10:46:09;14.50;;;3.30;;
62554;SDS011;48610;52.144;8.624;2023-08-08T10:49:11;7.82;;;3.20;;
62554;SDS011;48610;52.144;8.624;2023-08-08T10:52:15;10.90;;;3.08;;
62554;SDS011;48610;52.144;8.624;2023-08-08T10:55:19;5.82;;;3.00;;
62554;SDS011;48610;52.144;8.624;2023-08-08T10:58:33;7.93;;;3.10;;
62554;SDS011;48610;52.144;8.624;2023-08-08T11:01:38;5.60;;;2.90;;
62554;SDS011;48610;52.144;8.624;2023-08-08T11:04:39;7.70;;;3.15;;
62554;SDS011;48610;52.144;8.624;2023-08-08T11:07:41;8.70;;;2.90;;
62554;SDS011;48610;52.144;8.624;2023-08-08T11:10:42;11.02;;;2.90;;
62554;SDS011;48610;52.144;8.624;2023-08-08T11:13:43;8.95;;;2.92;;
62554;SDS011;48610;52.144;8.624;2023-08-08T11:16:45;6.00;;;2.38;;
62554;SDS011;48610;52.144;8.624;2023-08-08T11:19:46;8.32;;;2.90;;
62554;SDS011;48610;52.144;8.624;2023-08-08T11:22:54;3.78;;;2.65;;
62554;SDS011;48610;52.144;8.624;2023-08-08T11:25:57;11.38;;;2.60;;
62554;SDS011;48610;52.144;8.624;2023-08-08T11:28:59;6.93;;;2.35;;
62554;SDS011;48610;52.144;8.624;2023-08-08T11:32:00;7.97;;;2.70;;
62554;SDS011;48610;52.144;8.624;2023-08-08T11:35:02;6.47;;;2.55;;
62554;SDS011;48610;52.144;8.624;2023-08-08T11:38:05;5.50;;;2.55;;
62554;SDS011;48610;52.144;8.624;2023-08-08T11:41:06;8.68;;;2.25;;
62554;SDS011;48610;52.144;8.624;2023-08-08T11:44:07;3.00;;;2.17;;
62554;SDS011;48610;52.144;8.624;2023-08-08T11:47:08;3.10;;;2.03;;
62554;SDS011;48610;52.144;8.624;2023-08-08T11:50:09;4.90;;;2.20;;
62554;SDS011;48610;52.144;8.624;2023-08-08T11:53:11;3.70;;;2.20;;
62554;SDS011;48610;52.144;8.624;2023-08-08T11:56:12;4.45;;;2.35;;
62554;SDS011;48610;52.144;8.624;2023-08-08T11:59:13;4.10;;;2.50;;
62554;SDS011;48610;52.144;8.624;2023-08-08T12:02:13;5.75;;;2.22;;
62554;SDS011;48610;52.144;8.624;2023-08-08T12:05:14;11.50;;;2.83;;
62554;SDS011;48610;52.144;8.624;2023-08-08T12:08:21;6.55;;;2.70;;
62554;SDS011;48610;52.144;8.624;2023-08-08T12:11:23;11.30;;;2.00;;
62554;SDS011;48610;52.144;8.624;2023-08-08T12:14:24;5.97;;;2.17;;
62554;SDS011;48610;52.144;8.624;2023-08-08T12:17:25;2.67;;;1.85;;
62554;SDS011;48610;52.144;8.624;2023-08-08T12:20:29;4.57;;;1.73;;
62554;SDS011;48610;52.144;8.624;2023-08-08T12:23:32;3.28;;;1.77;;
62554;SDS011;48610;52.144;8.624;2023-08-08T12:26:34;6.35;;;2.20;;
62554;SDS011;48610;52.144;8.624;2023-08-08T12:29:34;4.28;;;2.13;;
62554;SDS011;48610;52.144;8.624;2023-08-08T12:32:35;5.07;;;2.08;;
62554;SDS011;48610;52.144;8.624;2023-08-08T12:35:36;3.85;;;2.05;;
62554;SDS011;48610;52.144;8.624;2023-08-08T12:38:36;7.07;;;1.77;;
62554;SDS011;48610;52.144;8.624;2023-08-08T12:41:37;2.47;;;1.60;;
62554;SDS011;48610;52.144;8.624;2023-08-08T12:44:39;4.78;;;2.03;;
62554;SDS011;48610;52.144;8.624;2023-08-08T12:47:40;5.85;;;1.90;;
62554;SDS011;48610;52.144;8.624;2023-08-08T12:50:40;2.47;;;1.88;;
62554;SDS011;48610;52.144;8.624;2023-08-08T12:53:41;2.08;;;1.52;;
62554;SDS011;48610;52.144;8.624;2023-08-08T12:56:42;4.60;;;2.03;;
62554;SDS011;48610;52.144;8.624;2023-08-08T12:59:42;2.45;;;1.20;;
62554;SDS011;48610;52.144;8.624;2023-08-08T13:02:43;2.88;;;1.60;;
62554;SDS011;48610;52.144;8.624;2023-08-08T13:05:44;2.20;;;1.70;;
62554;SDS011;48610;52.144;8.624;2023-08-08T13:08:44;4.32;;;1.52;;
62554;SDS011;48610;52.144;8.624;2023-08-08T13:11:45;4.18;;;1.52;;
62554;SDS011;48610;52.144;8.624;2023-08-08T13:14:46;11.45;;;1.58;;
62554;SDS011;48610;52.144;8.624;2023-08-08T13:17:47;1.23;;;1.13;;
62554;SDS011;48610;52.144;8.624;2023-08-08T13:20:47;3.95;;;1.83;;
62554;SDS011;48610;52.144;8.624;2023-08-08T13:23:48;4.97;;;1.77;;
62554;SDS011;48610;52.144;8.624;2023-08-08T13:26:49;3.45;;;1.30;;
62554;SDS011;48610;52.144;8.624;2023-08-08T13:29:50;6.00;;;1.80;;
62554;SDS011;48610;52.144;8.624;2023-08-08T13:32:50;6.65;;;1.45;;
62554;SDS011;48610;52.144;8.624;2023-08-08T13:35:51;10.27;;;1.67;;
62554;SDS011;48610;52.144;8.624;2023-08-08T13:38:52;1.73;;;1.15;;
62554;SDS011;48610;52.144;8.624;2023-08-08T13:41:52;3.33;;;1.55;;
62554;SDS011;48610;52.144;8.624;2023-08-08T13:44:53;7.72;;;1.80;;
62554;SDS011;48610;52.144;8.624;2023-08-08T13:47:53;2.13;;;1.35;;
62554;SDS011;48610;52.144;8.624;2023-08-08T13:50:54;1.55;;;1.08;;
62554;SDS011;48610;52.144;8.624;2023-08-08T13:53:55;1.55;;;1.27;;
62554;SDS011;48610;52.144;8.624;2023-08-08T13:56:56;1.77;;;1.33;;
62554;SDS011;48610;52.144;8.624;2023-08-08T13:59:56;1.58;;;1.15;;
62554;SDS011;48610;52.144;8.624;2023-08-08T14:02:57;1.50;;;1.33;;
62554;SDS011;48610;52.144;8.624;2023-08-08T14:05:58;1.98;;;1.20;;
62554;SDS011;48610;52.144;8.624;2023-08-08T14:08:59;1.48;;;1.30;;
62554;SDS011;48610;52.144;8.624;2023-08-08T14:12:00;2.67;;;1.13;;
62554;SDS011;48610;52.144;8.624;2023-08-08T14:15:00;6.28;;;1.30;;
62554;SDS011;48610;52.144;8.624;2023-08-08T14:18:01;3.20;;;1.67;;
62554;SDS011;48610;52.144;8.624;2023-08-08T14:21:01;4.57;;;2.05;;
62554;SDS011;48610;52.144;8.624;2023-08-08T14:24:04;2.42;;;1.15;;
62554;SDS011;48610;52.144;8.624;2023-08-08T14:27:06;3.15;;;1.50;;
62554;SDS011;48610;52.144;8.624;2023-08-08T14:30:07;1.75;;;1.30;;
62554;SDS011;48610;52.144;8.624;2023-08-08T14:33:08;3.17;;;1.40;;
62554;SDS011;48610;52.144;8.624;2023-08-08T14:36:09;3.88;;;1.98;;
62554;SDS011;48610;52.144;8.624;2023-08-08T14:39:09;2.33;;;1.55;;
62554;SDS011;48610;52.144;8.624;2023-08-08T14:42:11;3.53;;;1.45;;
62554;SDS011;48610;52.144;8.624;2023-08-08T14:45:11;3.17;;;1.05;;
62554;SDS011;48610;52.144;8.624;2023-08-08T14:48:12;2.20;;;1.33;;
62554;SDS011;48610;52.144;8.624;2023-08-08T14:51:12;4.18;;;1.50;;
62554;SDS011;48610;52.144;8.624;2023-08-08T14:54:16;8.43;;;1.70;;
62554;SDS011;48610;52.144;8.624;2023-08-08T14:57:17;1.20;;;1.10;;
62554;SDS011;48610;52.144;8.624;2023-08-08T15:00:17;2.22;;;1.80;;
62554;SDS011;48610;52.144;8.624;2023-08-08T15:03:18;2.47;;;1.50;;
62554;SDS011;48610;52.144;8.624;2023-08-08T15:06:19;2.05;;;1.40;;
62554;SDS011;48610;52.144;8.624;2023-08-08T15:09:20;1.10;;;1.10;;
62554;SDS011;48610;52.144;8.624;2023-08-08T15:12:20;2.28;;;1.63;;
62554;SDS011;48610;52.144;8.624;2023-08-08T15:15:21;1.83;;;1.38;;
62554;SDS011;48610;52.144;8.624;2023-08-08T15:18:22;3.47;;;1.45;;
62554;SDS011;48610;52.144;8.624;2023-08-08T15:21:23;2.88;;;1.55;;
62554;SDS011;48610;52.144;8.624;2023-08-08T15:24:24;2.35;;;1.48;;
62554;SDS011;48610;52.144;8.624;2023-08-08T15:27:24;2.65;;;1.70;;
62554;SDS011;48610;52.144;8.624;2023-08-08T15:30:25;1.85;;;1.73;;
62554;SDS011;48610;52.144;8.624;2023-08-08T15:33:26;4.35;;;1.23;;
62554;SDS011;48610;52.144;8.624;2023-08-08T15:36:26;5.05;;;1.80;;
62554;SDS011;48610;52.144;8.624;2023-08-08T15:39:27;1.88;;;1.45;;
62554;SDS011;48610;52.144;8.624;2023-08-08T15:42:27;5.22;;;1.85;;
62554;SDS011;48610;52.144;8.624;2023-08-08T15:45:28;2.33;;;1.42;;
62554;SDS011;48610;52.144;8.624;2023-08-08T15:48:29;2.03;;;1.75;;
62554;SDS011;48610;52.144;8.624;2023-08-08T15:51:29;2.83;;;1.63;;
62554;SDS011;48610;52.144;8.624;2023-08-08T15:54:30;2.33;;;1.70;;
62554;SDS011;48610;52.144;8.624;2023-08-08T15:57:31;2.63;;;1.63;;
62554;SDS011;48610;52.144;8.624;2023-08-08T16:00:32;7.32;;;1.98;;
62554;SDS011;48610;52.144;8.624;2023-08-08T16:03:33;3.08;;;1.67;;
62554;SDS011;48610;52.144;8.624;2023-08-08T16:06:34;1.83;;;1.50;;
62554;SDS011;48610;52.144;8.624;2023-08-08T16:09:35;2.03;;;1.77;;
62554;SDS011;48610;52.144;8.624;2023-08-08T16:12:35;2.10;;;1.75;;
62554;SDS011;48610;52.144;8.624;2023-08-08T16:15:36;3.65;;;1.60;;
62554;SDS011;48610;52.144;8.624;2023-08-08T16:18:36;3.53;;;1.95;;
62554;SDS011;48610;52.144;8.624;2023-08-08T16:21:37;2.50;;;1.90;;
62554;SDS011;48610;52.144;8.624;2023-08-08T16:24:37;4.35;;;1.63;;
62554;SDS011;48610;52.144;8.624;2023-08-08T16:27:39;4.07;;;1.85;;
62554;SDS011;48610;52.144;8.624;2023-08-08T16:30:41;1.75;;;1.63;;
62554;SDS011;48610;52.144;8.624;2023-08-08T16:33:41;3.17;;;1.70;;
62554;SDS011;48610;52.144;8.624;2023-08-08T16:36:42;5.50;;;1.88;;
62554;SDS011;48610;52.144;8.624;2023-08-08T16:39:43;1.65;;;1.55;;
62554;SDS011;48610;52.144;8.624;2023-08-08T16:42:44;2.15;;;1.90;;
62554;SDS011;48610;52.144;8.624;2023-08-08T16:45:44;4.00;;;1.85;;
62554;SDS011;48610;52.144;8.624;2023-08-08T16:48:45;5.47;;;2.13;;
62554;SDS011;48610;52.144;8.624;2023-08-08T16:51:46;3.83;;;2.00;;
62554;SDS011;48610;52.144;8.624;2023-08-08T16:54:47;2.40;;;2.20;;
62554;SDS011;48610;52.144;8.624;2023-08-08T16:57:47;3.33;;;1.70;;
62554;SDS011;48610;52.144;8.624;2023-08-08T17:00:48;3.83;;;2.20;;
62554;SDS011;48610;52.144;8.624;2023-08-08T17:03:51;2.10;;;1.90;;
62554;SDS011;48610;52.144;8.624;2023-08-08T17:06:51;2.30;;;1.67;;
62554;SDS011;48610;52.144;8.624;2023-08-08T17:09:52;2.40;;;1.80;;
62554;SDS011;48610;52.144;8.624;2023-08-08T17:12:53;2.97;;;1.98;;
62554;SDS011;48610;52.144;8.624;2023-08-08T17:15:53;2.78;;;2.10;;
62554;SDS011;48610;52.144;8.624;2023-08-08T17:18:54;5.78;;;2.00;;
62554;SDS011;48610;52.144;8.624;2023-08-08T17:21:55;3.80;;;2.22;;
62554;SDS011;48610;52.144;8.624;2023-08-08T17:24:56;2.38;;;1.65;;
62554;SDS011;48610;52.144;8.624;2023-08-08T17:27:57;4.28;;;2.20;;
62554;SDS011;48610;52.144;8.624;2023-08-08T17:30:58;2.33;;;1.88;;
62554;SDS011;48610;52.144;8.624;2023-08-08T17:33:59;6.97;;;2.03;;
62554;SDS011;48610;52.144;8.624;2023-08-08T17:37:00;2.38;;;2.17;;
62554;SDS011;48610;52.144;8.624;2023-08-08T17:40:00;2.20;;;2.00;;
62554;SDS011;48610;52.144;8.624;2023-08-08T17:43:01;3.85;;;1.88;;
62554;SDS011;48610;52.144;8.624;2023-08-08T17:46:01;3.67;;;2.33;;
62554;SDS011;48610;52.144;8.624;2023-08-08T17:49:03;3.30;;;2.05;;
62554;SDS011;48610;52.144;8.624;2023-08-08T17:52:04;3.17;;;2.30;;
62554;SDS011;48610;52.144;8.624;2023-08-08T17:55:05;3.47;;;2.20;;
62554;SDS011;48610;52.144;8.624;2023-08-08T17:58:05;5.75;;;2.33;;
62554;SDS011;48610;52.144;8.624;2023-08-08T18:01:06;2.63;;;2.13;;
62554;SDS011;48610;52.144;8.624;2023-08-08T18:04:07;4.88;;;2.50;;
62554;SDS011;48610;52.144;8.624;2023-08-08T18:07:09;7.55;;;2.70;;
62554;SDS011;48610;52.144;8.624;2023-08-08T18:10:10;5.35;;;2.50;;